« Back
NWS Peachtree City, Ga » Text Product » ATL Terminal Aerodrome Forecast


Printer-friendly Version
Current Version              Previous Versions:   1  2  3  4  5  6  7  8  9  

Terminal Aerodrome Forecast

744
FTUS42 KFFC 281557 AAB
TAFATL
TAF AMD
KATL 281557Z 2816/2918 09010G20KT P6SM SCT050 BKN120
     FM282000 08010KT P6SM SCT025 BKN050 OVC100
     FM290000 06008KT P6SM VCSH BKN025
     FM290200 06010KT 5SM -RA BR OVC012 PROB30 2906/2912 3SM RA BR
      OVC008=

USA.gov is the U.S. government's official web portal to all federal, state and local government web resources and services.